Centralia, MO

10:40 AM CST on February 01, 2015 (GMT -0600)
Millersburg | Change Station
CLOSE
Current Station
Personal Weather Station
Location: Fulton, MO
Elevation: 854 ft
Nearby Weather Stations

Elev 854 ft 38.92 °N, 92.13 °W | Updated 9 minutes ago

Snow
Snow
35.9 °F
Feels Like 36 °F
N
0.0
Wind Variable Wind from North
Gusts 2.0 mph

Today
High -- | Low -- °F
--% Chance of Precip.
Yesterday
High -- | Low -- °F
Precip. -- in
7:15 AM 5:29 PM
Waxing Gibbous, 95% visible
Pressure 29.69 in
Visibility 2.0 miles
Clouds Few 600 ft
Scattered Clouds 1100 ft
Overcast 1800 ft
Windchill 36 °F
Dew Point 35 °F
Humidity 97%
Rainfall 0.26 in
Snow Depth Not available.
UV 1 out of 12
Pollen .30 out of 12
Air Quality Not available.
Flu Activity Not available.
SPECI KCOU 011623Z 00000KT 2SM BR FEW006 SCT011 OVC018 02/02 A2969 RMK AO2 RAE14UPB14E17 P0001 T00220022 $

More Conditions Fewer Conditions

Pressure 29.69 in
Visibility 2.0 miles
Clouds Few 600 ft
Scattered Clouds 1100 ft
Overcast 1800 ft
Windchill 36 °F
Dew Point 35 °F
Humidity 97%
Rainfall 0.26 in
Snow Depth Not available.
UV 1 out of 12
Pollen .30 out of 12
Air Quality Not available.
Flu Activity Not available.
SPECI KCOU 011623Z 00000KT 2SM BR FEW006 SCT011 OVC018 02/02 A2969 RMK AO2 RAE14UPB14E17 P0001 T00220022 $

More Conditions Fewer Conditions

10-Day Weather Forecast

Almanac

Astronomy

Feb. 01, 2015 Rise Set
Actual Time
Civil Twilight
Nautical Twilight
Astronomical Twilight
Moon
Length of Visible Light
Length of Day
Tomorrow will be .
, % of the Moon is Illuminated

Today's Extremes

State Highs State Lows

Community

WunderPhotos

Upload Photos

1,792,362 photos uploaded!

WunderBlogs® & News

Nearby

Air Quality

  Air Quality AQ Index Pollutant
Not available.

Snow Depth

Station Depth Elevation

Earthquake Activity

City Distance Mag. Time & Date
Minimum magnitude displayed is 2.5.

Coastal Water Temperatures

Place Temperature

Nearby Weather Stations